createdAt,value
2022-11-30T00:03:04.239Z,20.3
2022-11-30T00:08:07.072Z,18.4
2022-11-30T00:13:09.175Z,18
2022-11-30T00:18:11.251Z,17.3
2022-11-30T00:23:13.769Z,18.5
2022-11-30T00:28:16.023Z,16.9
2022-11-30T00:33:18.252Z,18.5
2022-11-30T00:38:20.727Z,18.4
2022-11-30T00:43:22.791Z,17.2
2022-11-30T00:48:25.229Z,16.6
2022-11-30T00:53:28.332Z,16.8
2022-11-30T00:58:30.654Z,17.5
2022-11-30T01:03:32.874Z,18.1
2022-11-30T01:08:35.441Z,18.5
2022-11-30T01:13:37.819Z,16.6
2022-11-30T01:18:39.971Z,17.4
2022-11-30T01:23:42.365Z,17.3
2022-11-30T01:28:44.577Z,17.6
2022-11-30T01:33:46.934Z,19.3
2022-11-30T01:38:49.309Z,19.1
2022-11-30T01:43:51.430Z,19.6
2022-11-30T01:48:53.538Z,18.4
2022-11-30T01:53:56.204Z,17.4
2022-11-30T01:58:58.888Z,16.9
2022-11-30T02:04:01.326Z,17.1
2022-11-30T02:09:03.913Z,17.5
2022-11-30T02:14:06.177Z,16.1
2022-11-30T02:19:08.194Z,15
2022-11-30T02:24:10.485Z,16
2022-11-30T02:29:13.918Z,15.9
2022-11-30T02:34:16.272Z,14.5
2022-11-30T02:39:18.416Z,14.8
2022-11-30T02:44:20.801Z,14.8
2022-11-30T02:49:23.330Z,14.8
2022-11-30T02:54:25.456Z,14
2022-11-30T02:59:27.843Z,13.5
2022-11-30T03:04:30.363Z,14.1
2022-11-30T03:09:32.797Z,14.6
2022-11-30T03:14:35.185Z,13.7
2022-11-30T03:19:37.225Z,14.3
2022-11-30T03:24:39.254Z,13.3
2022-11-30T03:29:41.506Z,14.3
2022-11-30T03:34:44.032Z,13.6
2022-11-30T03:39:47.748Z,14.1
2022-11-30T03:44:49.316Z,13.8
2022-11-30T03:49:51.715Z,14.4
2022-11-30T03:54:53.983Z,13.7
2022-11-30T03:59:56.397Z,13.7
2022-11-30T04:04:58.933Z,13.9
2022-11-30T04:10:05.367Z,14.7
2022-11-30T04:15:10.673Z,13.5
2022-11-30T04:20:12.816Z,12.8
2022-11-30T04:25:15.406Z,14.3
2022-11-30T04:30:17.751Z,12.9
2022-11-30T04:35:20.502Z,13.6
2022-11-30T04:40:22.653Z,14
2022-11-30T04:45:24.815Z,13.2
2022-11-30T04:50:25.008Z,12.8
2022-11-30T04:55:27.113Z,14.1
2022-11-30T05:00:29.199Z,14.7
2022-11-30T05:05:31.334Z,13.3
2022-11-30T05:10:33.764Z,14.4
2022-11-30T05:15:36.037Z,14
2022-11-30T05:20:38.274Z,14.4
2022-11-30T05:25:40.478Z,14.4
2022-11-30T05:30:42.693Z,12.8
2022-11-30T05:35:44.877Z,13.9
2022-11-30T05:40:46.913Z,13.6
2022-11-30T05:45:48.903Z,25.1
2022-11-30T05:50:49.341Z,15.2
2022-11-30T05:55:51.473Z,14.7
2022-11-30T06:00:53.470Z,16.5
2022-11-30T06:05:55.543Z,15.6
2022-11-30T06:10:58.039Z,14.5
2022-11-30T06:16:00.648Z,13.9
2022-11-30T06:21:03.096Z,14.9
2022-11-30T06:26:06.102Z,14
2022-11-30T06:31:08.273Z,14.3
2022-11-30T06:36:10.816Z,13.9
2022-11-30T06:41:13.225Z,14.4
2022-11-30T06:46:15.708Z,13.2
2022-11-30T06:51:18.381Z,14.8
2022-11-30T06:56:21.287Z,14.3
2022-11-30T07:01:23.713Z,14.8
2022-11-30T07:06:25.997Z,14
2022-11-30T07:11:28.204Z,12.4
2022-11-30T07:16:30.363Z,12.7
2022-11-30T07:21:32.563Z,12.8
2022-11-30T07:26:34.590Z,15.8
2022-11-30T07:31:36.675Z,12.5
2022-11-30T07:36:39.650Z,12.4
2022-11-30T07:41:41.821Z,13.6
2022-11-30T07:46:44.103Z,12.1
2022-11-30T07:51:46.178Z,12.4
2022-11-30T07:56:48.097Z,11.3
2022-11-30T08:01:50.141Z,12.4
2022-11-30T08:06:52.832Z,11
2022-11-30T08:11:55.039Z,11.6
2022-11-30T08:16:57.016Z,12.2
2022-11-30T08:21:59.584Z,11.3
2022-11-30T08:27:01.538Z,11.1
2022-11-30T08:32:03.651Z,9.5
2022-11-30T08:37:05.651Z,11.3
2022-11-30T08:42:07.651Z,10.7
2022-11-30T08:47:09.718Z,9.8
2022-11-30T08:52:17.251Z,11.2
2022-11-30T08:57:20.638Z,8.6
2022-11-30T09:02:22.695Z,9.3
2022-11-30T09:07:24.877Z,9
2022-11-30T09:12:27.245Z,8.9
2022-11-30T09:17:29.308Z,9.7
2022-11-30T09:22:31.453Z,8.5
2022-11-30T09:27:33.449Z,9.3
2022-11-30T09:32:35.472Z,9.6
2022-11-30T09:37:37.426Z,10.2
2022-11-30T09:42:39.365Z,9.1
2022-11-30T09:47:41.381Z,11.5
2022-11-30T09:52:43.377Z,9.2
2022-11-30T09:57:47.159Z,9.4
2022-11-30T10:02:49.672Z,9.4
2022-11-30T10:07:52.972Z,10.7
2022-11-30T10:12:55.391Z,8.6
2022-11-30T10:17:57.435Z,9.2
2022-11-30T10:22:59.881Z,9.3
2022-11-30T10:28:12.552Z,10.1
2022-11-30T10:33:10.290Z,10.1
2022-11-30T10:38:12.229Z,9.4
2022-11-30T10:43:14.208Z,9.6
2022-11-30T10:48:16.270Z,9.6
2022-11-30T10:53:18.333Z,9.7
2022-11-30T10:58:20.332Z,9.8
2022-11-30T11:03:22.300Z,11
2022-11-30T11:08:24.354Z,9.5
2022-11-30T11:13:26.434Z,9.6
2022-11-30T11:18:28.412Z,9.2
2022-11-30T11:23:30.515Z,9.7
2022-11-30T11:28:32.759Z,10.5
2022-11-30T11:33:34.847Z,10.4
2022-11-30T11:38:36.866Z,9.9
2022-11-30T11:43:39.120Z,8.9
2022-11-30T11:48:41.655Z,10.1
2022-11-30T11:53:47.568Z,8.6
2022-11-30T11:58:45.558Z,8.8
2022-11-30T12:03:47.813Z,8.9
2022-11-30T12:08:50.235Z,9.6
2022-11-30T12:13:51.265Z,8.7
2022-11-30T12:18:53.481Z,9.1
2022-11-30T12:23:55.647Z,8.9
2022-11-30T12:28:58.716Z,9.7
2022-11-30T12:34:00.862Z,8.7
2022-11-30T12:39:02.985Z,8.6
2022-11-30T12:44:05.038Z,9.4
2022-11-30T12:49:07.210Z,8.2
2022-11-30T12:54:09.655Z,10.3
2022-11-30T12:59:11.799Z,9.7
2022-11-30T13:04:13.834Z,8.3
2022-11-30T13:09:15.862Z,10.2
2022-11-30T13:14:17.864Z,9.4
2022-11-30T13:19:19.978Z,12.9
2022-11-30T13:24:22.518Z,10.2
2022-11-30T13:29:24.629Z,10.8
2022-11-30T13:34:27.076Z,10.6
2022-11-30T13:39:28.982Z,9.7
2022-11-30T13:44:31.014Z,9.9
2022-11-30T13:49:33.107Z,11.3
2022-11-30T13:54:35.273Z,10.6
2022-11-30T13:59:37.316Z,11.3
2022-11-30T14:04:39.467Z,11.1
2022-11-30T14:09:41.697Z,14.3
2022-11-30T14:14:45.573Z,15.6
2022-11-30T14:19:48.751Z,14.2
2022-11-30T14:24:51.795Z,16.1
2022-11-30T14:29:53.826Z,13.7
2022-11-30T14:34:55.844Z,16.3
2022-11-30T14:39:57.803Z,16.5
2022-11-30T14:44:59.835Z,18.6
2022-11-30T14:50:02.031Z,15.6
2022-11-30T14:55:04.544Z,13.4
2022-11-30T15:00:06.649Z,16.2
2022-11-30T15:05:08.694Z,20.3
2022-11-30T15:10:11.005Z,24.9
2022-11-30T15:15:13.300Z,26.2
2022-11-30T15:20:15.263Z,30
2022-11-30T15:25:17.623Z,39.1
2022-11-30T15:30:19.705Z,28.7
2022-11-30T15:35:21.870Z,30.2
2022-11-30T15:40:23.945Z,30.5
2022-11-30T15:45:25.997Z,29.4
2022-11-30T15:50:28.185Z,31.3
2022-11-30T15:55:30.220Z,39.8
2022-11-30T16:00:32.249Z,43.1
2022-11-30T16:05:34.319Z,42.1
2022-11-30T16:10:36.322Z,40
2022-11-30T16:15:38.886Z,35.5
2022-11-30T16:20:40.860Z,95
2022-11-30T16:25:42.927Z,38.6
2022-11-30T16:30:44.978Z,35.7
2022-11-30T16:35:46.928Z,48
2022-11-30T16:40:49.222Z,48.1
2022-11-30T16:45:51.286Z,50.7
2022-11-30T16:50:53.800Z,48.9
2022-11-30T16:55:55.824Z,44.3
2022-11-30T17:00:57.860Z,40.6
2022-11-30T17:06:00.210Z,36.5
2022-11-30T17:11:02.222Z,29.6
2022-11-30T17:16:04.224Z,31.2
2022-11-30T17:21:06.216Z,29.3
2022-11-30T17:26:08.566Z,32.9
2022-11-30T17:31:10.636Z,34
2022-11-30T17:36:13.072Z,36.2
2022-11-30T17:41:18.783Z,33.1
2022-11-30T17:46:21.796Z,38.6
2022-11-30T17:51:24.802Z,31.4
2022-11-30T17:56:27.180Z,24.6
2022-11-30T18:01:29.315Z,24.2
2022-11-30T18:06:31.991Z,24.6
2022-11-30T18:11:33.999Z,23.6
2022-11-30T18:16:35.990Z,21.1
2022-11-30T18:21:38.169Z,19.1
2022-11-30T18:26:40.271Z,22.5
2022-11-30T18:31:42.431Z,23.3
2022-11-30T18:36:44.487Z,24.5
2022-11-30T18:41:46.804Z,21.7
2022-11-30T18:46:48.792Z,21.7
2022-11-30T18:51:51.135Z,22.3
2022-11-30T18:56:53.083Z,21
2022-11-30T19:01:55.317Z,22.1
2022-11-30T19:06:57.851Z,20.9
2022-11-30T19:11:59.752Z,15.8
2022-11-30T19:17:01.920Z,16.1
2022-11-30T19:22:04.137Z,18.2
2022-11-30T19:27:06.364Z,16.6
2022-11-30T19:32:08.446Z,18.8
2022-11-30T19:37:10.662Z,17.7
2022-11-30T19:42:12.707Z,20.1
2022-11-30T19:47:14.821Z,17.8
2022-11-30T19:52:16.828Z,17.3
2022-11-30T19:57:19.037Z,17.8
2022-11-30T20:02:21.161Z,16.7
2022-11-30T20:07:23.383Z,15.6
2022-11-30T20:12:25.793Z,18.2
2022-11-30T20:17:28.288Z,15.5
2022-11-30T20:22:30.269Z,15.5
2022-11-30T20:27:32.348Z,16.5
2022-11-30T20:32:34.290Z,16.8
2022-11-30T20:37:36.212Z,15.8
2022-11-30T20:42:38.179Z,15.6
2022-11-30T20:47:40.190Z,17
2022-11-30T20:52:42.199Z,14.3
2022-11-30T20:57:44.641Z,14.1
2022-11-30T21:02:46.733Z,16.7
2022-11-30T21:07:49.332Z,15.7
2022-11-30T21:12:52.847Z,14.4
2022-11-30T21:17:54.851Z,17.5
2022-11-30T21:22:56.983Z,17.4
2022-11-30T21:27:59.003Z,14.4
2022-11-30T21:33:01.069Z,15.6
2022-11-30T21:38:03.082Z,14
2022-11-30T21:43:05.120Z,15.6
2022-11-30T21:48:07.310Z,16.1
2022-11-30T21:53:09.453Z,17.6
2022-11-30T21:58:11.747Z,19.2
2022-11-30T22:03:18.183Z,17.9
2022-11-30T22:08:22.287Z,17.2
2022-11-30T22:13:24.569Z,17.2
2022-11-30T22:18:26.862Z,15.3
2022-11-30T22:23:29.034Z,16.5
2022-11-30T22:28:31.533Z,16.1
2022-11-30T22:33:33.562Z,16.9
2022-11-30T22:38:35.628Z,16.4
2022-11-30T22:43:37.826Z,15.3
2022-11-30T22:48:39.949Z,14
2022-11-30T22:53:42.141Z,13.1
2022-11-30T22:58:44.141Z,14
2022-11-30T23:03:46.197Z,13.3
2022-11-30T23:08:49.020Z,14.1
2022-11-30T23:13:50.967Z,14.8
2022-11-30T23:18:52.944Z,14.5
2022-11-30T23:23:54.909Z,14.2
2022-11-30T23:28:57.098Z,14.1
2022-11-30T23:33:59.678Z,13.9
2022-11-30T23:39:01.682Z,13.3
2022-11-30T23:44:03.627Z,13.2
2022-11-30T23:49:05.632Z,14
2022-11-30T23:54:08.024Z,13.9
2022-11-30T23:59:09.993Z,14.2
